sensor_id;sensor_type;location;lat;lon;timestamp;pressure;altitude;pressure_sealevel;temperature;humidity
42289;BME280;30230;47.520;19.016;2023-01-30T00:01:30;99596.19;;;-3.50;86.22
42289;BME280;30230;47.520;19.016;2023-01-30T00:03:30;99619.66;;;-3.46;87.31
42289;BME280;30230;47.520;19.016;2023-01-30T00:05:31;99609.81;;;-3.44;86.71
42289;BME280;30230;47.520;19.016;2023-01-30T00:07:31;99613.28;;;-3.43;86.99
42289;BME280;30230;47.520;19.016;2023-01-30T00:09:32;99605.91;;;-3.51;86.94
42289;BME280;30230;47.520;19.016;2023-01-30T00:11:32;99605.28;;;-3.54;87.47
42289;BME280;30230;47.520;19.016;2023-01-30T00:13:33;99615.72;;;-3.53;87.54
42289;BME280;30230;47.520;19.016;2023-01-30T00:15:34;99582.78;;;-3.73;88.55
42289;BME280;30230;47.520;19.016;2023-01-30T00:17:35;99597.56;;;-3.57;87.71
42289;BME280;30230;47.520;19.016;2023-01-30T00:19:35;99592.69;;;-3.63;87.83
42289;BME280;30230;47.520;19.016;2023-01-30T00:21:36;99607.50;;;-3.61;87.84
42289;BME280;30230;47.520;19.016;2023-01-30T00:23:37;99602.22;;;-3.61;88.04
42289;BME280;30230;47.520;19.016;2023-01-30T00:25:37;99597.88;;;-3.62;87.69
42289;BME280;30230;47.520;19.016;2023-01-30T00:27:38;99592.19;;;-3.69;87.90
42289;BME280;30230;47.520;19.016;2023-01-30T00:29:38;99591.22;;;-3.68;88.46
42289;BME280;30230;47.520;19.016;2023-01-30T00:31:38;99600.22;;;-3.70;87.35
42289;BME280;30230;47.520;19.016;2023-01-30T00:33:39;99588.41;;;-3.77;88.90
42289;BME280;30230;47.520;19.016;2023-01-30T00:35:46;99584.03;;;-3.78;88.63
42289;BME280;30230;47.520;19.016;2023-01-30T00:37:47;99588.88;;;-3.72;88.45
42289;BME280;30230;47.520;19.016;2023-01-30T00:39:47;99591.03;;;-3.77;88.56
42289;BME280;30230;47.520;19.016;2023-01-30T00:41:48;99585.75;;;-3.77;89.32
42289;BME280;30230;47.520;19.016;2023-01-30T00:44:07;99590.59;;;-3.71;87.96
42289;BME280;30230;47.520;19.016;2023-01-30T00:46:30;99589.53;;;-3.69;88.81
42289;BME280;30230;47.520;19.016;2023-01-30T00:48:50;99592.06;;;-3.67;88.15
42289;BME280;30230;47.520;19.016;2023-01-30T00:50:50;99589.66;;;-3.70;87.75
42289;BME280;30230;47.520;19.016;2023-01-30T00:52:50;99581.50;;;-3.67;89.02
42289;BME280;30230;47.520;19.016;2023-01-30T00:54:51;99578.97;;;-3.69;88.04
42289;BME280;30230;47.520;19.016;2023-01-30T00:56:51;99578.34;;;-3.72;88.27
42289;BME280;30230;47.520;19.016;2023-01-30T00:58:52;99573.94;;;-3.72;88.11
42289;BME280;30230;47.520;19.016;2023-01-30T01:00:52;99558.41;;;-3.76;88.47
42289;BME280;30230;47.520;19.016;2023-01-30T01:02:53;99569.69;;;-3.61;86.57
42289;BME280;30230;47.520;19.016;2023-01-30T01:04:53;99571.47;;;-3.62;85.98
42289;BME280;30230;47.520;19.016;2023-01-30T01:06:53;99564.06;;;-3.57;85.88
42289;BME280;30230;47.520;19.016;2023-01-30T01:08:54;99570.63;;;-3.50;85.95
42289;BME280;30230;47.520;19.016;2023-01-30T01:10:54;99554.47;;;-3.58;85.93
42289;BME280;30230;47.520;19.016;2023-01-30T01:12:55;99561.66;;;-3.60;87.13
42289;BME280;30230;47.520;19.016;2023-01-30T01:14:55;99557.09;;;-3.58;86.78
42289;BME280;30230;47.520;19.016;2023-01-30T01:16:56;99548.78;;;-3.64;87.24
42289;BME280;30230;47.520;19.016;2023-01-30T01:18:56;99547.09;;;-3.65;86.80
42289;BME280;30230;47.520;19.016;2023-01-30T01:20:57;99548.59;;;-3.61;87.51
42289;BME280;30230;47.520;19.016;2023-01-30T01:22:57;99549.41;;;-3.61;86.98
42289;BME280;30230;47.520;19.016;2023-01-30T01:24:57;99551.72;;;-3.44;86.35
42289;BME280;30230;47.520;19.016;2023-01-30T01:26:58;99550.44;;;-3.25;84.86
42289;BME280;30230;47.520;19.016;2023-01-30T01:28:58;99552.97;;;-3.36;84.66
42289;BME280;30230;47.520;19.016;2023-01-30T01:30:59;99527.63;;;-3.52;86.07
42289;BME280;30230;47.520;19.016;2023-01-30T01:32:59;99543.47;;;-3.39;85.88
42289;BME280;30230;47.520;19.016;2023-01-30T01:35:03;99541.16;;;-3.44;85.68
42289;BME280;30230;47.520;19.016;2023-01-30T01:37:03;99538.38;;;-3.42;84.98
42289;BME280;30230;47.520;19.016;2023-01-30T01:39:04;99533.34;;;-3.45;85.09
42289;BME280;30230;47.520;19.016;2023-01-30T01:41:04;99537.78;;;-3.46;85.48
42289;BME280;30230;47.520;19.016;2023-01-30T01:43:14;99524.16;;;-3.52;85.50
42289;BME280;30230;47.520;19.016;2023-01-30T01:45:21;99529.94;;;-3.47;85.68
42289;BME280;30230;47.520;19.016;2023-01-30T01:47:22;99508.63;;;-3.57;85.99
42289;BME280;30230;47.520;19.016;2023-01-30T01:49:28;99523.94;;;-3.49;86.09
42289;BME280;30230;47.520;19.016;2023-01-30T01:51:44;99519.72;;;-3.52;85.51
42289;BME280;30230;47.520;19.016;2023-01-30T01:53:51;99515.38;;;-3.53;87.51
42289;BME280;30230;47.520;19.016;2023-01-30T01:55:56;99504.09;;;-3.55;86.17
42289;BME280;30230;47.520;19.016;2023-01-30T01:58:06;99502.50;;;-3.57;86.33
42289;BME280;30230;47.520;19.016;2023-01-30T02:00:14;99511.50;;;-3.60;86.29
42289;BME280;30230;47.520;19.016;2023-01-30T02:02:16;99494.94;;;-3.75;86.11
42289;BME280;30230;47.520;19.016;2023-01-30T02:04:17;99496.50;;;-3.72;86.61
42289;BME280;30230;47.520;19.016;2023-01-30T02:06:38;99488.78;;;-3.62;86.76
42289;BME280;30230;47.520;19.016;2023-01-30T02:08:48;99479.94;;;-3.61;86.09
42289;BME280;30230;47.520;19.016;2023-01-30T02:12:55;99479.94;;;-3.61;87.24
42289;BME280;30230;47.520;19.016;2023-01-30T02:14:56;99480.53;;;-3.58;86.75
42289;BME280;30230;47.520;19.016;2023-01-30T02:16:58;99478.13;;;-3.61;86.96
42289;BME280;30230;47.520;19.016;2023-01-30T02:18:58;99476.44;;;-3.62;86.39
42289;BME280;30230;47.520;19.016;2023-01-30T02:27:41;99463.66;;;-3.68;87.78
42289;BME280;30230;47.520;19.016;2023-01-30T02:32:32;99465.16;;;-3.64;88.11
42289;BME280;30230;47.520;19.016;2023-01-30T02:45:28;99435.47;;;-3.68;86.14
42289;BME280;30230;47.520;19.016;2023-01-30T02:47:38;99444.53;;;-3.59;87.31
42289;BME280;30230;47.520;19.016;2023-01-30T02:49:47;99430.72;;;-3.62;86.82
42289;BME280;30230;47.520;19.016;2023-01-30T02:51:51;99427.03;;;-3.60;87.85
42289;BME280;30230;47.520;19.016;2023-01-30T02:53:54;99430.09;;;-3.66;88.11
42289;BME280;30230;47.520;19.016;2023-01-30T02:55:55;99415.00;;;-3.64;88.15
42289;BME280;30230;47.520;19.016;2023-01-30T02:57:55;99420.16;;;-3.62;87.05
42289;BME280;30230;47.520;19.016;2023-01-30T02:59:58;99419.22;;;-3.61;87.20
42289;BME280;30230;47.520;19.016;2023-01-30T03:11:29;99407.41;;;-3.69;87.62
42289;BME280;30230;47.520;19.016;2023-01-30T03:14:12;99404.88;;;-3.70;88.07
42289;BME280;30230;47.520;19.016;2023-01-30T03:18:11;99403.97;;;-3.82;88.96
42289;BME280;30230;47.520;19.016;2023-01-30T03:20:13;99407.66;;;-3.84;89.01
42289;BME280;30230;47.520;19.016;2023-01-30T03:22:14;99409.13;;;-3.93;89.47
42289;BME280;30230;47.520;19.016;2023-01-30T03:24:15;99401.56;;;-3.98;89.04
42289;BME280;30230;47.520;19.016;2023-01-30T03:26:19;99408.00;;;-4.02;90.18
42289;BME280;30230;47.520;19.016;2023-01-30T03:28:20;99402.69;;;-3.89;89.61
42289;BME280;30230;47.520;19.016;2023-01-30T03:30:23;99412.84;;;-3.96;89.09
42289;BME280;30230;47.520;19.016;2023-01-30T03:32:24;99405.56;;;-3.92;89.35
42289;BME280;30230;47.520;19.016;2023-01-30T03:34:24;99402.81;;;-3.90;88.16
42289;BME280;30230;47.520;19.016;2023-01-30T03:36:25;99396.56;;;-3.89;88.98
42289;BME280;30230;47.520;19.016;2023-01-30T03:38:25;99390.06;;;-3.97;89.75
42289;BME280;30230;47.520;19.016;2023-01-30T03:40:26;99389.31;;;-3.99;89.34
42289;BME280;30230;47.520;19.016;2023-01-30T03:42:27;99391.94;;;-3.99;90.38
42289;BME280;30230;47.520;19.016;2023-01-30T03:44:27;99387.34;;;-4.08;90.93
42289;BME280;30230;47.520;19.016;2023-01-30T03:46:28;99373.91;;;-4.05;90.86
42289;BME280;30230;47.520;19.016;2023-01-30T03:48:28;99384.47;;;-3.92;90.23
42289;BME280;30230;47.520;19.016;2023-01-30T03:50:29;99388.19;;;-3.71;89.42
42289;BME280;30230;47.520;19.016;2023-01-30T03:52:29;99375.88;;;-3.83;88.71
42289;BME280;30230;47.520;19.016;2023-01-30T03:54:29;99381.66;;;-3.78;89.04
42289;BME280;30230;47.520;19.016;2023-01-30T03:56:30;99386.09;;;-3.78;89.45
42289;BME280;30230;47.520;19.016;2023-01-30T03:58:31;99380.09;;;-3.80;88.77
42289;BME280;30230;47.520;19.016;2023-01-30T04:00:31;99376.94;;;-3.85;89.75
42289;BME280;30230;47.520;19.016;2023-01-30T04:02:32;99370.31;;;-3.91;90.52
42289;BME280;30230;47.520;19.016;2023-01-30T04:04:32;99368.31;;;-4.00;90.67
42289;BME280;30230;47.520;19.016;2023-01-30T04:06:33;99369.69;;;-3.95;91.74
42289;BME280;30230;47.520;19.016;2023-01-30T04:08:33;99372.56;;;-3.98;90.96
42289;BME280;30230;47.520;19.016;2023-01-30T04:10:34;99365.81;;;-4.02;91.45
42289;BME280;30230;47.520;19.016;2023-01-30T04:12:34;99367.03;;;-3.95;92.00
42289;BME280;30230;47.520;19.016;2023-01-30T04:14:35;99359.25;;;-3.96;91.27
42289;BME280;30230;47.520;19.016;2023-01-30T04:16:35;99335.97;;;-4.15;92.15
42289;BME280;30230;47.520;19.016;2023-01-30T04:18:36;99363.97;;;-3.88;91.28
42289;BME280;30230;47.520;19.016;2023-01-30T04:20:36;99359.25;;;-3.96;91.15
42289;BME280;30230;47.520;19.016;2023-01-30T04:22:37;99361.03;;;-3.97;91.49
42289;BME280;30230;47.520;19.016;2023-01-30T04:24:38;99351.13;;;-4.06;91.56
42289;BME280;30230;47.520;19.016;2023-01-30T04:26:38;99363.69;;;-4.09;91.68
42289;BME280;30230;47.520;19.016;2023-01-30T04:28:39;99349.41;;;-3.94;92.27
42289;BME280;30230;47.520;19.016;2023-01-30T04:30:40;99344.25;;;-3.96;92.58
42289;BME280;30230;47.520;19.016;2023-01-30T04:32:40;99343.94;;;-3.91;91.27
42289;BME280;30230;47.520;19.016;2023-01-30T04:34:41;99351.22;;;-3.95;92.19
42289;BME280;30230;47.520;19.016;2023-01-30T04:36:43;99349.31;;;-3.92;92.48
42289;BME280;30230;47.520;19.016;2023-01-30T04:38:43;99327.91;;;-4.01;91.77
42289;BME280;30230;47.520;19.016;2023-01-30T04:40:50;99331.78;;;-3.94;92.54
42289;BME280;30230;47.520;19.016;2023-01-30T04:42:51;99331.38;;;-4.00;91.45
42289;BME280;30230;47.520;19.016;2023-01-30T04:44:51;99327.97;;;-3.89;92.82
42289;BME280;30230;47.520;19.016;2023-01-30T04:46:53;99327.13;;;-3.90;92.68
42289;BME280;30230;47.520;19.016;2023-01-30T04:48:53;99323.78;;;-3.92;92.06
42289;BME280;30230;47.520;19.016;2023-01-30T04:50:55;99325.56;;;-3.92;92.05
42289;BME280;30230;47.520;19.016;2023-01-30T04:52:56;99321.84;;;-3.90;92.46
42289;BME280;30230;47.520;19.016;2023-01-30T04:54:56;99325.97;;;-3.86;91.99
42289;BME280;30230;47.520;19.016;2023-01-30T04:56:56;99306.22;;;-3.93;92.44
42289;BME280;30230;47.520;19.016;2023-01-30T04:58:57;99319.44;;;-3.93;92.53
42289;BME280;30230;47.520;19.016;2023-01-30T05:01:24;99317.75;;;-3.94;91.58
42289;BME280;30230;47.520;19.016;2023-01-30T05:03:25;99318.75;;;-4.08;93.22
42289;BME280;30230;47.520;19.016;2023-01-30T05:05:26;99321.72;;;-4.12;93.84
42289;BME280;30230;47.520;19.016;2023-01-30T05:07:26;99319.59;;;-4.07;93.73
42289;BME280;30230;47.520;19.016;2023-01-30T05:09:27;99303.34;;;-4.14;93.83
42289;BME280;30230;47.520;19.016;2023-01-30T05:11:28;99312.34;;;-4.16;93.56
42289;BME280;30230;47.520;19.016;2023-01-30T05:13:28;99318.56;;;-4.17;93.49
42289;BME280;30230;47.520;19.016;2023-01-30T05:15:29;99304.88;;;-4.35;93.33
42289;BME280;30230;47.520;19.016;2023-01-30T05:17:29;99309.06;;;-4.20;94.46
42289;BME280;30230;47.520;19.016;2023-01-30T05:19:30;99318.78;;;-4.21;93.65
42289;BME280;30230;47.520;19.016;2023-01-30T05:21:30;99306.44;;;-4.20;94.23
42289;BME280;30230;47.520;19.016;2023-01-30T05:23:30;99312.53;;;-4.07;95.00
42289;BME280;30230;47.520;19.016;2023-01-30T05:25:31;99311.75;;;-3.96;94.45
42289;BME280;30230;47.520;19.016;2023-01-30T05:27:32;99315.75;;;-3.90;94.38
42289;BME280;30230;47.520;19.016;2023-01-30T05:29:32;99314.91;;;-3.91;94.23
42289;BME280;30230;47.520;19.016;2023-01-30T05:31:32;99296.75;;;-3.96;94.48
42289;BME280;30230;47.520;19.016;2023-01-30T05:33:34;99308.22;;;-3.84;94.43
42289;BME280;30230;47.520;19.016;2023-01-30T05:35:35;99304.97;;;-3.87;93.50
42289;BME280;30230;47.520;19.016;2023-01-30T05:37:35;99305.81;;;-3.87;94.81
42289;BME280;30230;47.520;19.016;2023-01-30T05:39:37;99301.03;;;-3.82;94.32
42289;BME280;30230;47.520;19.016;2023-01-30T05:41:37;99304.63;;;-3.83;94.20
42289;BME280;30230;47.520;19.016;2023-01-30T05:43:38;99288.91;;;-3.84;94.36
42289;BME280;30230;47.520;19.016;2023-01-30T05:45:38;99290.19;;;-3.90;95.26
42289;BME280;30230;47.520;19.016;2023-01-30T05:47:38;99277.66;;;-3.99;95.01
42289;BME280;30230;47.520;19.016;2023-01-30T05:49:39;99290.81;;;-3.86;94.24
42289;BME280;30230;47.520;19.016;2023-01-30T05:51:39;99287.44;;;-3.88;94.37
42289;BME280;30230;47.520;19.016;2023-01-30T05:53:40;99287.44;;;-3.88;95.54
42289;BME280;30230;47.520;19.016;2023-01-30T05:55:40;99301.59;;;-3.89;94.98
42289;BME280;30230;47.520;19.016;2023-01-30T05:57:40;99306.03;;;-3.90;94.52
42289;BME280;30230;47.520;19.016;2023-01-30T05:59:41;99300.75;;;-3.90;94.43
42289;BME280;30230;47.520;19.016;2023-01-30T06:01:41;99302.50;;;-4.02;94.21
42289;BME280;30230;47.520;19.016;2023-01-30T06:03:42;99302.69;;;-4.05;94.84
42289;BME280;30230;47.520;19.016;2023-01-30T06:05:42;99304.81;;;-4.10;95.23
42289;BME280;30230;47.520;19.016;2023-01-30T06:07:43;99289.75;;;-4.21;95.83
42289;BME280;30230;47.520;19.016;2023-01-30T06:09:43;99287.75;;;-4.17;94.97
42289;BME280;30230;47.520;19.016;2023-01-30T06:11:44;99294.91;;;-4.19;95.09
42289;BME280;30230;47.520;19.016;2023-01-30T06:13:44;99293.03;;;-4.17;96.89
42289;BME280;30230;47.520;19.016;2023-01-30T06:15:45;99288.78;;;-4.07;96.31
42289;BME280;30230;47.520;19.016;2023-01-30T06:17:45;99294.66;;;-4.03;96.49
42289;BME280;30230;47.520;19.016;2023-01-30T06:19:46;99297.81;;;-3.98;95.89
42289;BME280;30230;47.520;19.016;2023-01-30T06:21:46;99294.84;;;-3.94;96.45
42289;BME280;30230;47.520;19.016;2023-01-30T06:23:47;99291.88;;;-3.89;97.00
42289;BME280;30230;47.520;19.016;2023-01-30T06:25:48;99300.75;;;-3.90;96.93
42289;BME280;30230;47.520;19.016;2023-01-30T06:27:48;99299.28;;;-3.94;96.56
42289;BME280;30230;47.520;19.016;2023-01-30T06:29:49;99316.03;;;-3.82;97.13
42289;BME280;30230;47.520;19.016;2023-01-30T06:31:49;99299.25;;;-3.81;96.81
42289;BME280;30230;47.520;19.016;2023-01-30T06:33:50;99293.38;;;-3.74;96.78
42289;BME280;30230;47.520;19.016;2023-01-30T06:35:50;99279.59;;;-3.77;96.53
42289;BME280;30230;47.520;19.016;2023-01-30T06:37:51;99290.28;;;-3.68;96.70
42289;BME280;30230;47.520;19.016;2023-01-30T06:39:51;99287.09;;;-3.60;95.99
42289;BME280;30230;47.520;19.016;2023-01-30T06:41:52;99274.75;;;-3.59;95.42
42289;BME280;30230;47.520;19.016;2023-01-30T06:43:52;99271.53;;;-3.52;95.11
42289;BME280;30230;47.520;19.016;2023-01-30T06:45:53;99274.66;;;-3.47;94.45
42289;BME280;30230;47.520;19.016;2023-01-30T06:47:54;99267.13;;;-3.40;94.91
42289;BME280;30230;47.520;19.016;2023-01-30T06:49:54;99258.59;;;-3.44;95.12
42289;BME280;30230;47.520;19.016;2023-01-30T06:51:55;99280.22;;;-3.38;95.57
42289;BME280;30230;47.520;19.016;2023-01-30T06:53:55;99266.06;;;-3.37;96.13
42289;BME280;30230;47.520;19.016;2023-01-30T06:55:57;99267.97;;;-3.39;96.37
42289;BME280;30230;47.520;19.016;2023-01-30T06:58:06;99277.13;;;-3.32;96.23
42289;BME280;30230;47.520;19.016;2023-01-30T07:00:11;99268.50;;;-3.23;96.80
42289;BME280;30230;47.520;19.016;2023-01-30T07:02:13;99265.75;;;-3.10;96.22
42289;BME280;30230;47.520;19.016;2023-01-30T07:04:13;99258.44;;;-3.07;94.35
42289;BME280;30230;47.520;19.016;2023-01-30T07:06:14;99265.19;;;-2.92;94.39
42289;BME280;30230;47.520;19.016;2023-01-30T07:08:15;99264.63;;;-2.84;93.86
42289;BME280;30230;47.520;19.016;2023-01-30T07:10:16;99259.91;;;-2.80;93.56
42289;BME280;30230;47.520;19.016;2023-01-30T07:12:16;99263.03;;;-1.44;100.00
42289;BME280;30230;47.520;19.016;2023-01-30T07:14:17;99260.31;;;-0.30;100.00
42289;BME280;30230;47.520;19.016;2023-01-30T07:16:17;99257.84;;;-0.52;100.00
42289;BME280;30230;47.520;19.016;2023-01-30T07:18:17;99262.81;;;-0.28;100.00
42289;BME280;30230;47.520;19.016;2023-01-30T07:20:18;99265.69;;;-0.50;92.11
42289;BME280;30230;47.520;19.016;2023-01-30T07:22:18;99261.91;;;-0.79;86.49
42289;BME280;30230;47.520;19.016;2023-01-30T07:24:19;99255.97;;;-0.92;86.49
42289;BME280;30230;47.520;19.016;2023-01-30T07:26:20;99253.28;;;-1.22;88.27
42289;BME280;30230;47.520;19.016;2023-01-30T07:28:21;99257.81;;;-1.34;88.81
42289;BME280;30230;47.520;19.016;2023-01-30T07:30:21;99261.84;;;-1.51;89.20
42289;BME280;30230;47.520;19.016;2023-01-30T07:32:21;99249.56;;;-1.52;89.11
42289;BME280;30230;47.520;19.016;2023-01-30T07:34:22;99262.69;;;-1.50;89.17
42289;BME280;30230;47.520;19.016;2023-01-30T07:36:22;99262.09;;;-1.54;89.97
42289;BME280;30230;47.520;19.016;2023-01-30T07:38:23;99255.38;;;-1.58;89.35
42289;BME280;30230;47.520;19.016;2023-01-30T07:40:24;99253.94;;;-1.62;91.04
42289;BME280;30230;47.520;19.016;2023-01-30T07:42:24;99246.47;;;-1.57;90.83
42289;BME280;30230;47.520;19.016;2023-01-30T07:44:25;99255.63;;;-1.61;89.78
42289;BME280;30230;47.520;19.016;2023-01-30T07:46:25;99258.28;;;-1.61;89.84
42289;BME280;30230;47.520;19.016;2023-01-30T07:48:26;99256.13;;;-1.67;90.72
42289;BME280;30230;47.520;19.016;2023-01-30T07:50:27;99229.91;;;-1.70;90.82
42289;BME280;30230;47.520;19.016;2023-01-30T07:52:27;99234.28;;;-1.48;89.86
42289;BME280;30230;47.520;19.016;2023-01-30T07:54:28;99245.44;;;-1.45;89.78
42289;BME280;30230;47.520;19.016;2023-01-30T07:56:29;99244.47;;;-1.44;89.41
42289;BME280;30230;47.520;19.016;2023-01-30T07:58:29;99232.00;;;-1.53;89.88
42289;BME280;30230;47.520;19.016;2023-01-30T08:00:30;99247.44;;;-1.58;90.49
42289;BME280;30230;47.520;19.016;2023-01-30T08:02:31;99248.53;;;-1.40;90.77
42289;BME280;30230;47.520;19.016;2023-01-30T08:04:31;99250.09;;;-1.37;89.91
42289;BME280;30230;47.520;19.016;2023-01-30T08:06:32;99237.69;;;-1.37;90.56
42289;BME280;30230;47.520;19.016;2023-01-30T08:08:38;99239.63;;;-1.39;90.85
42289;BME280;30230;47.520;19.016;2023-01-30T08:10:38;99228.06;;;-1.38;91.45
42289;BME280;30230;47.520;19.016;2023-01-30T08:12:39;99237.31;;;-1.32;90.28
42289;BME280;30230;47.520;19.016;2023-01-30T08:14:40;99219.47;;;-1.30;90.68
42289;BME280;30230;47.520;19.016;2023-01-30T08:16:40;99205.66;;;-1.34;90.75
42289;BME280;30230;47.520;19.016;2023-01-30T08:18:41;99178.94;;;-1.42;92.05
42289;BME280;30230;47.520;19.016;2023-01-30T08:20:41;99178.31;;;-1.34;91.23
42289;BME280;30230;47.520;19.016;2023-01-30T08:22:42;99170.81;;;-1.29;91.96
42289;BME280;30230;47.520;19.016;2023-01-30T08:24:42;99170.16;;;-1.21;90.98
42289;BME280;30230;47.520;19.016;2023-01-30T08:26:43;99170.16;;;-1.21;91.15
42289;BME280;30230;47.520;19.016;2023-01-30T08:28:43;99179.00;;;-1.11;90.39
42289;BME280;30230;47.520;19.016;2023-01-30T08:30:43;99178.28;;;-1.13;90.01
42289;BME280;30230;47.520;19.016;2023-01-30T08:32:44;99175.06;;;-1.17;89.98
42289;BME280;30230;47.520;19.016;2023-01-30T08:34:44;99174.38;;;-1.19;90.42
42289;BME280;30230;47.520;19.016;2023-01-30T08:36:47;99161.81;;;-1.17;90.95
42289;BME280;30230;47.520;19.016;2023-01-30T08:38:47;99183.59;;;-1.13;90.55
42289;BME280;30230;47.520;19.016;2023-01-30T08:40:48;99177.19;;;-1.11;90.31
42289;BME280;30230;47.520;19.016;2023-01-30T08:42:48;99183.47;;;-1.12;90.73
42289;BME280;30230;47.520;19.016;2023-01-30T08:44:48;99174.53;;;-1.11;91.51
42289;BME280;30230;47.520;19.016;2023-01-30T08:46:49;99175.31;;;-0.89;90.44
42289;BME280;30230;47.520;19.016;2023-01-30T08:48:49;99169.31;;;-0.91;90.24
42289;BME280;30230;47.520;19.016;2023-01-30T08:50:54;99174.38;;;-0.79;90.51
42289;BME280;30230;47.520;19.016;2023-01-30T08:52:54;99156.25;;;-0.73;88.68
42289;BME280;30230;47.520;19.016;2023-01-30T08:54:55;99158.03;;;-0.84;89.33
42289;BME280;30230;47.520;19.016;2023-01-30T08:56:55;99173.69;;;-0.81;89.79
42289;BME280;30230;47.520;19.016;2023-01-30T08:58:55;99174.38;;;-0.79;89.77
42289;BME280;30230;47.520;19.016;2023-01-30T09:00:56;99179.00;;;-0.81;90.32
42289;BME280;30230;47.520;19.016;2023-01-30T09:02:57;99182.13;;;-0.66;90.83
42289;BME280;30230;47.520;19.016;2023-01-30T09:04:57;99182.97;;;-0.65;90.25
42289;BME280;30230;47.520;19.016;2023-01-30T09:06:57;99173.91;;;-0.53;89.51
42289;BME280;30230;47.520;19.016;2023-01-30T09:08:58;99163.41;;;-0.64;88.98
42289;BME280;30230;47.520;19.016;2023-01-30T09:11:01;99172.50;;;-0.57;89.95
42289;BME280;30230;47.520;19.016;2023-01-30T09:13:01;99159.69;;;-0.42;89.10
42289;BME280;30230;47.520;19.016;2023-01-30T09:15:02;99160.97;;;-0.46;88.65
42289;BME280;30230;47.520;19.016;2023-01-30T09:17:03;99163.72;;;-0.48;89.09
42289;BME280;30230;47.520;19.016;2023-01-30T09:19:03;99149.34;;;-0.55;88.74
42289;BME280;30230;47.520;19.016;2023-01-30T09:21:04;99154.66;;;-0.55;89.49
42289;BME280;30230;47.520;19.016;2023-01-30T09:23:05;99152.97;;;-0.56;89.55
42289;BME280;30230;47.520;19.016;2023-01-30T09:25:05;99157.75;;;-0.40;88.58
42289;BME280;30230;47.520;19.016;2023-01-30T09:27:06;99149.81;;;-0.31;87.37
42289;BME280;30230;47.520;19.016;2023-01-30T09:29:07;99143.09;;;-0.44;88.22
42289;BME280;30230;47.520;19.016;2023-01-30T09:31:08;99144.91;;;-0.45;88.71
42289;BME280;30230;47.520;19.016;2023-01-30T09:33:08;99132.22;;;-0.41;89.39
42289;BME280;30230;47.520;19.016;2023-01-30T09:35:09;99133.59;;;-0.37;88.34
42289;BME280;30230;47.520;19.016;2023-01-30T09:37:09;99115.00;;;-0.47;87.55
42289;BME280;30230;47.520;19.016;2023-01-30T09:39:10;99136.94;;;-0.45;88.95
42289;BME280;30230;47.520;19.016;2023-01-30T09:43:41;99122.84;;;-0.36;89.27
42289;BME280;30230;47.520;19.016;2023-01-30T09:45:57;99131.50;;;-0.34;88.31
42289;BME280;30230;47.520;19.016;2023-01-30T09:54:46;99096.59;;;-0.39;88.96
42289;BME280;30230;47.520;19.016;2023-01-30T09:57:22;99092.53;;;-0.33;87.52
42289;BME280;30230;47.520;19.016;2023-01-30T09:59:36;99084.44;;;-0.51;88.50
42289;BME280;30230;47.520;19.016;2023-01-30T10:06:10;99077.59;;;-0.34;87.31
42289;BME280;30230;47.520;19.016;2023-01-30T10:10:48;99071.72;;;-0.28;85.61
42289;BME280;30230;47.520;19.016;2023-01-30T10:13:19;99064.19;;;-0.23;86.83
42289;BME280;30230;47.520;19.016;2023-01-30T10:15:47;99059.03;;;-0.05;86.12
42289;BME280;30230;47.520;19.016;2023-01-30T10:26:25;99038.38;;;0.36;83.38
42289;BME280;30230;47.520;19.016;2023-01-30T10:28:53;99031.41;;;0.25;84.14
42289;BME280;30230;47.520;19.016;2023-01-30T10:31:01;99020.25;;;0.21;83.05
42289;BME280;30230;47.520;19.016;2023-01-30T10:33:19;99008.34;;;0.25;82.90
42289;BME280;30230;47.520;19.016;2023-01-30T10:35:26;99019.25;;;0.32;83.05
42289;BME280;30230;47.520;19.016;2023-01-30T10:37:31;99020.09;;;0.23;83.57
42289;BME280;30230;47.520;19.016;2023-01-30T10:39:44;99010.56;;;0.30;82.86
42289;BME280;30230;47.520;19.016;2023-01-30T10:42:06;98987.78;;;0.28;83.35
42289;BME280;30230;47.520;19.016;2023-01-30T10:44:10;99004.84;;;0.25;84.28
42289;BME280;30230;47.520;19.016;2023-01-30T10:50:47;98968.38;;;0.27;84.12
42289;BME280;30230;47.520;19.016;2023-01-30T10:57:46;98960.72;;;0.14;85.72
42289;BME280;30230;47.520;19.016;2023-01-30T10:59:51;98952.53;;;-0.02;86.86
42289;BME280;30230;47.520;19.016;2023-01-30T11:06:07;98940.19;;;0.07;88.00
42289;BME280;30230;47.520;19.016;2023-01-30T11:10:24;98921.63;;;0.07;88.36
42289;BME280;30230;47.520;19.016;2023-01-30T11:12:25;98924.38;;;0.15;87.62
42289;BME280;30230;47.520;19.016;2023-01-30T11:14:25;98924.25;;;0.16;88.25
42289;BME280;30230;47.520;19.016;2023-01-30T11:16:26;98921.00;;;0.22;87.02
42289;BME280;30230;47.520;19.016;2023-01-30T11:18:26;98921.28;;;0.19;86.85
42289;BME280;30230;47.520;19.016;2023-01-30T11:20:27;98906.16;;;0.20;87.95
42289;BME280;30230;47.520;19.016;2023-01-30T11:22:29;98900.03;;;0.19;87.65
42289;BME280;30230;47.520;19.016;2023-01-30T11:24:37;98896.09;;;0.23;88.25
42289;BME280;30230;47.520;19.016;2023-01-30T11:26:38;98879.34;;;0.23;88.00
42289;BME280;30230;47.520;19.016;2023-01-30T11:28:41;98892.84;;;0.30;88.38
42289;BME280;30230;47.520;19.016;2023-01-30T11:30:42;98886.31;;;0.24;87.76
42289;BME280;30230;47.520;19.016;2023-01-30T11:32:45;98880.16;;;0.23;87.42
42289;BME280;30230;47.520;19.016;2023-01-30T11:35:22;98869.16;;;0.18;88.06
42289;BME280;30230;47.520;19.016;2023-01-30T11:37:30;98850.50;;;0.28;86.61
42289;BME280;30230;47.520;19.016;2023-01-30T11:39:31;98846.91;;;0.19;87.34
42289;BME280;30230;47.520;19.016;2023-01-30T11:41:33;98858.81;;;0.43;86.32
42289;BME280;30230;47.520;19.016;2023-01-30T11:43:35;98855.72;;;0.47;85.52
42289;BME280;30230;47.520;19.016;2023-01-30T11:45:41;98865.56;;;0.37;86.32
42289;BME280;30230;47.520;19.016;2023-01-30T11:48:16;98800.47;;;0.06;86.46
42289;BME280;30230;47.520;19.016;2023-01-30T11:50:27;98845.28;;;0.36;85.83
42289;BME280;30230;47.520;19.016;2023-01-30T11:52:29;98843.50;;;0.72;95.12
42289;BME280;30230;47.520;19.016;2023-01-30T11:54:36;98846.84;;;0.74;88.58
42289;BME280;30230;47.520;19.016;2023-01-30T11:56:40;98851.00;;;0.77;84.38